Pagina principale
METAR-TAF:

METAR-TAF

Aeroporti :

Aeroporto Internazionale Jorge Chávez

Lima, Perù

latitudine: 12-00S, longitudine: 077-07W, altezza: 12 m

Osservazione

Il bollettino è stato emesso 1 ora e 8 minuti fa, alle 05:00 UTC
Vento 7 kt da sud
Temperature 17°C
Umidità 88%
Pressione 1016 hPa
Visibilità 10 km o più
Nuvoloso ad un'altezza di 2500 ft

METAR: SPJC 160500Z 17007KT 9999 BKN025 17/15 Q1016 NOSIG RMK PP000

Ora: 01:08 (06:08 UTC)

Previsione

Il bollettino è stato emesso 1 ora e 8 minuti fa, alle 05:00 UTC
Previsione valida dal 16 alle 06 UTC al 17 alle 06 UTC
Vento 10 kt da sud
Visibilità 10 km o più
Cielo coperto ad un'altezza di 2000 ft
Evoluzione graduale
dal 16 alle 08 UTC al 16 alle 10 UTC
Cielo coperto ad un'altezza di 1500 ft
Evoluzione graduale
dal 16 alle 14 UTC al 16 alle 16 UTC
Cielo coperto ad un'altezza di 2000 ft

TAF: SPJC 160500Z 1606/1706 18010KT 9999 OVC020 TX20/1619Z TN16/1610Z BECMG 1608/1610 OVC015 BECMG 1614/1616 OVC020

Osservazioni e previsioni meteorologiche di più di 4000 aeroporti (messaggi METAR e TAF).

Le stazioni disponibili sono rappresentate dai dischi gialli e rossi sulla carta.

Puntare il mouse per vedere il nome della stazione.

Clicca sopra per visualizzare le osservazioni e previsioni meteorologiche.

Per cambiare la mappa : fare clic sui pulsanti verdi con una croce nera per ingrandire, il pulsante verde con un trattino per diminuire, o sulla freccia verde per le mappe adiacenti.


METAR-TAF: